Time;durP1;ratioP1;P1;durP2;ratioP2;P2;SDS_P1;SDS_P2;PMS_P1;PMS_P2;Temp;Humidity;BMP_temperature;BMP_pressure;BME280_temperature;BME280_humidity;BME280_pressure;Samples;Min_cycle;Max_cycle;Signal;HPM_P1;HPM_P2
2023/07/30 00:00:52;;;;;;;;;8.20;7.20;;;;;20.72;97.58;99178.19;6303439;20;2749358;-46
2023/07/30 00:03:21;;;;;;;;;7.80;6.80;;;;;20.82;96.74;99168.78;6302441;20;2732788;-48
2023/07/30 00:05:56;;;;;;;;;6.60;6.60;;;;;20.79;97.32;99185.50;6338157;20;2739974;-45
2023/07/30 00:08:25;;;;;;;;;7.00;7.00;;;;;20.81;97.29;99178.00;6334212;20;2735796;-46
2023/07/30 00:10:58;;;;;;;;;8.40;7.00;;;;;20.65;97.84;99178.03;6332907;20;2734742;-45
2023/07/30 00:13:27;;;;;;;;;7.00;7.00;;;;;20.55;98.80;99178.19;6334709;20;2748169;-45
2023/07/30 00:15:55;;;;;;;;;8.33;8.00;;;;;20.79;97.21;99174.59;6277767;20;2748198;-46
2023/07/30 00:18:24;;;;;;;;;9.75;7.25;;;;;20.56;98.40;99179.91;6332676;20;2647299;-46
2023/07/30 00:20:53;;;;;;;;;7.40;7.40;;;;;20.48;98.33;99176.28;6335803;20;2740222;-49
2023/07/30 00:23:22;;;;;;;;;8.00;7.20;;;;;20.48;98.44;99173.56;6335340;20;2741949;-47
2023/07/30 00:25:51;;;;;;;;;7.80;7.80;;;;;20.31;98.69;99168.13;6337412;20;2749215;-48
2023/07/30 00:28:20;;;;;;;;;5.80;5.80;;;;;20.46;99.39;99167.41;6302497;20;2726415;-46
2023/07/30 00:30:49;;;;;;;;;8.00;8.00;;;;;20.35;99.07;99174.06;6335761;20;2739911;-47
2023/07/30 00:33:18;;;;;;;;;6.00;6.00;;;;;20.60;98.51;99174.97;6301251;20;2736841;-48
2023/07/30 00:35:50;;;;;;;;;7.80;7.80;;;;;20.52;98.83;99170.34;6335276;20;2752462;-49
2023/07/30 00:38:19;;;;;;;;;8.80;8.80;;;;;20.65;98.56;99169.84;6295853;20;2748235;-49
2023/07/30 00:40:49;;;;;;;;;7.00;7.00;;;;;20.71;98.74;99163.69;6304838;20;2737933;-48
2023/07/30 00:43:18;;;;;;;;;7.40;7.40;;;;;20.72;97.92;99165.41;6302805;20;2739846;-48
2023/07/30 00:45:46;;;;;;;;;10.67;8.00;;;;;20.71;98.09;99165.56;6277434;20;2758610;-48
2023/07/30 00:48:15;;;;;;;;;5.80;5.60;;;;;20.57;98.97;99164.41;6331819;20;2733703;-46
2023/07/30 00:50:44;;;;;;;;;6.60;6.40;;;;;20.66;98.16;99163.34;6333922;20;2744172;-45
2023/07/30 00:53:15;;;;;;;;;9.00;7.67;;;;;20.59;99.39;99165.09;6272644;20;2754567;-47
2023/07/30 00:55:44;;;;;;;;;7.60;7.60;;;;;20.62;98.83;99167.47;6332026;20;2747176;-48
2023/07/30 00:58:13;;;;;;;;;8.40;7.00;;;;;20.62;98.97;99172.94;6298870;20;2749313;-46
2023/07/30 01:00:42;;;;;;;;;7.80;7.80;;;;;20.52;99.15;99156.69;6303252;20;2752352;-47
2023/07/30 01:03:10;;;;;;;;;13.00;9.00;;;;;20.55;99.55;99166.44;6273186;20;2773376;-46
2023/07/30 01:05:40;;;;;;;;;6.80;6.80;;;;;20.33;100.00;99160.63;6333925;20;2754551;-50
2023/07/30 01:08:09;;;;;;;;;8.80;7.00;;;;;20.53;99.88;99163.00;6297443;20;2749277;-48
2023/07/30 01:10:41;;;;;;;;;9.33;6.00;;;;;20.75;99.02;99162.34;6275157;20;2759766;-48
2023/07/30 01:13:13;;;;;;;;;7.80;7.60;;;;;20.78;98.12;99167.44;6328917;20;2741047;-46
2023/07/30 01:15:43;;;;;;;;;7.00;7.00;;;;;20.87;97.65;99160.09;6298569;20;2733591;-50
2023/07/30 01:18:11;;;;;;;;;7.33;7.33;;;;;20.86;97.78;99161.13;6305470;20;2755578;-48
2023/07/30 01:20:40;;;;;;;;;8.80;7.80;;;;;20.79;97.51;99169.13;6334982;20;2747341;-45
2023/07/30 01:23:09;;;;;;;;;6.40;6.40;;;;;20.80;97.57;99169.97;6305178;20;2734694;-47
2023/07/30 01:25:40;;;;;;;;;8.00;8.00;;;;;20.76;97.85;99169.47;6334840;20;2746183;-48
2023/07/30 01:28:12;;;;;;;;;9.67;7.67;;;;;20.88;97.51;99167.25;6275528;20;2752346;-45
2023/07/30 01:30:43;;;;;;;;;8.20;8.00;;;;;20.86;97.22;99157.56;6331886;20;2746084;-48
2023/07/30 01:33:11;;;;;;;;;8.67;7.67;;;;;20.98;97.07;99156.13;6271418;20;2756685;-48
2023/07/30 01:35:43;;;;;;;;;9.00;8.00;;;;;20.94;97.27;99154.81;6329431;20;2745130;-46
2023/07/30 01:38:13;;;;;;;;;7.80;6.80;;;;;20.93;96.38;99151.22;6296329;20;2745096;-47
2023/07/30 01:40:41;;;;;;;;;8.00;7.00;;;;;20.87;96.28;99148.31;6276136;20;2734716;-45
2023/07/30 01:43:10;;;;;;;;;8.60;8.00;;;;;20.83;97.22;99145.94;6328970;20;2740958;-46
2023/07/30 01:45:39;;;;;;;;;8.00;7.67;;;;;20.81;96.90;99156.19;6284286;20;2746169;-52
2023/07/30 01:48:08;;;;;;;;;7.67;7.67;;;;;20.81;98.19;99148.00;6312628;20;2748166;-46
2023/07/30 01:50:37;;;;;;;;;9.00;7.80;;;;;20.74;98.18;99140.66;6337840;20;2752338;-46
2023/07/30 01:53:05;;;;;;;;;6.00;6.00;;;;;20.68;98.56;99135.91;6275089;20;2737817;-47
2023/07/30 01:55:34;;;;;;;;;7.60;7.60;;;;;20.59;98.83;99135.09;6333816;20;2747218;-46
2023/07/30 01:58:09;;;;;;;;;8.40;7.20;;;;;20.57;98.92;99142.59;6304940;20;2746208;-47
2023/07/30 02:00:37;;;;;;;;;10.33;8.33;;;;;20.68;98.77;99144.94;6282438;20;2763813;-45
2023/07/30 02:03:06;;;;;;;;;5.60;5.60;;;;;20.35;98.74;99139.50;6337529;20;2748255;-44
2023/07/30 02:05:36;;;;;;;;;6.60;6.60;;;;;20.29;99.51;99140.16;6304525;20;2740926;-47
2023/07/30 02:08:05;;;;;;;;;8.40;6.60;;;;;19.85;100.00;99131.44;6331690;20;2735755;-45
2023/07/30 02:10:33;;;;;;;;;8.67;7.67;;;;;19.71;100.00;99120.16;6309050;20;2751349;-48
2023/07/30 02:13:02;;;;;;;;;8.80;8.20;;;;;19.77;100.00;99121.38;6335596;20;2749223;-46
2023/07/30 02:15:31;;;;;;;;;6.00;6.00;;;;;19.54;100.00;99118.41;6303569;20;2744185;-48
2023/07/30 02:18:00;;;;;;;;;9.00;7.80;;;;;19.81;100.00;99124.63;6338075;20;2743100;-46
2023/07/30 02:20:29;;;;;;;;;6.80;6.80;;;;;19.71;100.00;99114.72;6335825;20;2746162;-44
2023/07/30 02:22:57;;;;;;;;;9.33;9.33;;;;;19.77;100.00;99124.09;6310976;20;2758618;-46
2023/07/30 02:25:26;;;;;;;;;5.80;5.00;;;;;19.84;100.00;99125.13;6335199;20;2748201;-49
2023/07/30 02:27:56;;;;;;;;;10.20;9.20;;;;;19.82;100.00;99120.88;6330075;20;2766416;-46
2023/07/30 02:30:24;;;;;;;;;10.00;9.00;;;;;19.93;100.00;99129.59;6279503;20;2796123;-47
2023/07/30 02:32:54;;;;;;;;;8.40;8.40;;;;;19.84;100.00;99130.56;6335739;20;2754476;-48
2023/07/30 02:35:25;;;;;;;;;8.33;7.17;;;;;20.11;100.00;99131.28;6317784;20;1798452;-46
2023/07/30 02:37:54;;;;;;;;;5.80;5.80;;;;;20.10;100.00;99129.59;6332797;20;2736785;-47
2023/07/30 02:40:23;;;;;;;;;7.60;7.60;;;;;20.02;100.00;99135.91;6336385;20;2749210;-49
2023/07/30 02:42:53;;;;;;;;;9.00;8.00;;;;;19.93;100.00;99135.03;6289051;20;2754525;-48
2023/07/30 02:45:22;;;;;;;;;7.80;7.80;;;;;20.01;100.00;99142.38;6337865;20;2754564;-47
2023/07/30 02:47:51;;;;;;;;;7.00;6.80;;;;;19.84;100.00;99138.75;6298822;20;2737903;-45
2023/07/30 02:50:21;;;;;;;;;7.80;7.80;;;;;19.78;100.00;99147.59;6331935;20;2752411;-45
2023/07/30 02:52:49;;;;;;;;;6.33;6.33;;;;;19.62;100.00;99139.38;6286927;20;2737777;-46
2023/07/30 02:55:18;;;;;;;;;9.00;8.40;;;;;19.73;100.00;99147.25;6333520;20;2770165;-45
2023/07/30 02:57:46;;;;;;;;;7.00;7.00;;;;;19.55;100.00;99141.03;6275874;20;2752413;-45
2023/07/30 03:00:15;;;;;;;;;6.80;6.40;;;;;19.63;100.00;99138.34;6337041;20;2744045;-47
2023/07/30 03:02:43;;;;;;;;;7.67;7.00;;;;;19.76;100.00;99133.28;6321404;20;2744097;-48
2023/07/30 03:05:13;;;;;;;;;6.80;6.80;;;;;19.55;100.00;99141.03;6336810;20;2739947;-45
2023/07/30 03:07:42;;;;;;;;;7.00;6.80;;;;;19.61;100.00;99143.09;6335139;20;2744164;-45
2023/07/30 03:10:11;;;;;;;;;6.40;6.40;;;;;19.52;100.00;99137.63;6304150;20;2732631;-46
2023/07/30 03:12:40;;;;;;;;;7.80;7.80;;;;;19.59;100.00;99134.22;6332506;20;2743065;-45
2023/07/30 03:15:09;;;;;;;;;8.33;6.67;;;;;19.23;100.00;99135.31;6314805;20;2733607;-50
2023/07/30 03:17:37;;;;;;;;;10.33;8.00;;;;;19.59;100.00;99147.84;6307436;20;2765962;-46
2023/07/30 03:20:08;;;;;;;;;7.80;7.80;;;;;19.45;100.00;99146.63;6336380;20;2751350;-45
2023/07/30 03:22:37;;;;;;;;;7.00;7.00;;;;;19.49;100.00;99148.84;6305010;20;2734648;-45
2023/07/30 03:25:07;;;;;;;;;11.20;8.80;;;;;19.34;100.00;99144.19;6335432;20;2767969;-46
2023/07/30 03:27:35;;;;;;;;;10.33;8.67;;;;;19.28;100.00;99143.84;6280334;20;2755038;-47
2023/07/30 03:30:05;;;;;;;;;6.25;6.25;;;;;19.45;100.00;99146.63;6337663;20;2619050;-47
2023/07/30 03:32:34;;;;;;;;;10.00;7.60;;;;;19.50;100.00;99146.97;6332411;20;2749253;-48
2023/07/30 03:35:02;;;;;;;;;7.00;7.00;;;;;19.41;100.00;99150.69;6278298;20;2737970;-45
2023/07/30 03:37:30;;;;;;;;;8.00;8.00;;;;;19.44;100.00;99153.94;6312390;20;2756601;-45
2023/07/30 03:39:59;;;;;;;;;9.20;8.00;;;;;19.38;100.00;99153.72;6336991;20;2747245;-46
2023/07/30 03:42:28;;;;;;;;;7.40;6.40;;;;;19.47;100.00;99156.31;6304137;20;2744125;-48
2023/07/30 03:44:56;;;;;;;;;9.67;8.67;;;;;19.40;100.00;99160.72;6275184;20;3479670;-46
2023/07/30 03:47:25;;;;;;;;;8.40;8.40;;;;;19.58;100.00;99160.59;6332606;20;2737906;-49
2023/07/30 03:49:55;;;;;;;;;7.60;7.60;;;;;19.52;100.00;99164.84;6303780;20;2748323;-47
2023/07/30 03:52:23;;;;;;;;;8.00;8.00;;;;;19.57;100.00;99155.34;6284572;20;2750455;-45
2023/07/30 03:54:52;;;;;;;;;9.20;7.60;;;;;19.67;100.00;99164.28;6330158;20;2757158;-47
2023/07/30 03:57:20;;;;;;;;;8.67;8.67;;;;;19.72;100.00;99159.16;6274609;20;2757617;-47
2023/07/30 03:59:49;;;;;;;;;7.60;7.60;;;;;19.78;100.00;99150.34;6334421;20;2756570;-43
2023/07/30 04:02:17;;;;;;;;;9.67;8.67;;;;;19.78;100.00;99155.78;6283049;20;2756605;-43
2023/07/30 04:04:46;;;;;;;;;9.00;8.00;;;;;19.84;100.00;99157.81;6308832;20;2762790;-45
2023/07/30 04:07:14;;;;;;;;;10.00;9.00;;;;;19.91;100.00;99161.59;6309711;20;2773520;-54
2023/07/30 04:09:42;;;;;;;;;9.00;7.67;;;;;19.98;100.00;99159.03;6316487;20;2740966;-56
2023/07/30 04:12:10;;;;;;;;;11.00;9.67;;;;;20.17;100.00;99164.19;6314641;20;2786791;-55
2023/07/30 04:14:39;;;;;;;;;7.40;7.00;;;;;20.24;100.00;99158.06;6332779;20;2750313;-51
2023/07/30 04:17:07;;;;;;;;;8.33;8.33;;;;;20.00;100.00;99165.19;6281931;20;2749231;-57
2023/07/30 04:19:35;;;;;;;;;7.33;6.67;;;;;20.15;100.00;99170.84;6317419;20;2748199;-55
2023/07/30 04:22:03;;;;;;;;;9.67;9.67;;;;;20.23;100.00;99168.09;6306105;20;2771120;-46
2023/07/30 04:24:32;;;;;;;;;7.80;7.80;;;;;20.25;100.00;99171.53;6333405;20;2748246;-44
2023/07/30 04:27:01;;;;;;;;;7.80;7.80;;;;;20.44;100.00;99180.41;6304881;20;2740961;-44
2023/07/30 04:29:30;;;;;;;;;5.60;5.60;;;;;20.50;100.00;99179.69;6303870;20;2737789;-44
2023/07/30 04:31:58;;;;;;;;;10.00;8.33;;;;;20.39;100.00;99181.75;6310048;20;2770049;-43
2023/07/30 04:34:26;;;;;;;;;9.00;9.00;;;;;20.37;100.00;99175.59;6305406;20;2752379;-45
2023/07/30 04:36:55;;;;;;;;;9.20;7.20;;;;;20.44;100.00;99181.25;6335905;20;2749248;-46
2023/07/30 04:39:24;;;;;;;;;10.20;7.80;;;;;20.37;100.00;99186.50;6304218;20;2759714;-45
2023/07/30 04:41:52;;;;;;;;;8.00;8.00;;;;;20.55;100.00;99182.81;6281895;20;2746228;-44
2023/07/30 04:44:20;;;;;;;;;6.00;6.00;;;;;20.83;100.00;99180.56;6317726;20;2736847;-44
2023/07/30 04:46:49;;;;;;;;;9.00;7.40;;;;;20.59;100.00;99181.47;6335457;20;2742012;-46
2023/07/30 04:49:17;;;;;;;;;10.67;9.33;;;;;20.74;100.00;99190.63;6274852;20;2778374;-46
2023/07/30 04:51:45;;;;;;;;;7.00;7.00;;;;;20.96;99.27;99189.09;6311587;20;2744076;-46
2023/07/30 04:54:15;;;;;;;;;9.00;9.00;;;;;20.96;99.58;99180.91;6331947;20;2737857;-45
2023/07/30 04:56:44;;;;;;;;;8.00;8.00;;;;;21.04;99.62;99185.47;6302464;20;2744040;-45
2023/07/30 04:59:13;;;;;;;;;7.00;6.00;;;;;20.99;99.69;99182.44;6301030;20;2739973;-50
2023/07/30 05:01:42;;;;;;;;;6.80;6.80;;;;;21.07;99.71;99187.88;6296091;20;2741967;-46
2023/07/30 05:04:10;;;;;;;;;8.00;7.00;;;;;21.33;98.16;99186.75;6275321;20;2756528;-44
2023/07/30 05:06:39;;;;;;;;;6.00;6.00;;;;;21.22;97.95;99191.59;6333828;20;2744550;-43
2023/07/30 05:09:08;;;;;;;;;8.40;7.80;;;;;21.37;97.73;99190.84;6301948;20;2751291;-45
2023/07/30 05:11:36;;;;;;;;;7.00;7.00;;;;;21.42;96.98;99197.50;6285267;20;2756546;-44
2023/07/30 05:14:04;;;;;;;;;7.67;7.00;;;;;21.61;96.67;99196.22;6307297;20;2753617;-45
2023/07/30 05:16:33;;;;;;;;;9.60;8.40;;;;;21.58;97.09;99195.75;6329241;20;2755637;-45
2023/07/30 05:19:03;;;;;;;;;8.00;8.00;;;;;21.73;96.22;99201.31;6297098;20;2748201;-45
2023/07/30 05:21:31;;;;;;;;;7.33;6.33;;;;;21.91;95.52;99193.72;6272732;20;2754472;-44
2023/07/30 05:24:00;;;;;;;;;5.00;5.00;;;;;22.04;95.13;99196.72;6332428;20;2738818;-46
2023/07/30 05:26:29;;;;;;;;;6.00;6.00;;;;;22.13;95.13;99195.59;6299595;20;2748216;-44
2023/07/30 05:28:58;;;;;;;;;6.20;6.20;;;;;22.06;95.31;99193.78;6297795;20;2730451;-44
2023/07/30 05:31:27;;;;;;;;;7.80;6.20;;;;;22.16;94.69;99190.81;6331489;20;2746089;-44
2023/07/30 05:33:55;;;;;;;;;8.00;8.00;;;;;22.09;95.73;99188.81;6277385;20;2748361;-47
2023/07/30 05:36:24;;;;;;;;;9.00;8.25;;;;;22.26;94.28;99184.09;6330523;20;2779601;-44
2023/07/30 05:38:52;;;;;;;;;6.67;6.67;;;;;22.20;94.61;99194.94;6304458;20;2741986;-46
2023/07/30 05:41:21;;;;;;;;;7.00;7.00;;;;;22.28;94.03;99198.47;6311093;20;2739922;-43
2023/07/30 05:43:50;;;;;;;;;6.40;6.40;;;;;22.44;93.78;99186.53;6331264;20;2750742;-44
2023/07/30 05:46:19;;;;;;;;;9.00;9.00;;;;;22.54;92.29;99199.97;6300158;20;2754484;-43
2023/07/30 05:48:47;;;;;;;;;6.50;6.50;;;;;22.56;93.66;99196.03;6278942;20;2632555;-47
2023/07/30 05:51:16;;;;;;;;;6.60;6.60;;;;;22.63;91.56;99206.22;6333912;20;2754487;-45
2023/07/30 05:53:45;;;;;;;;;7.00;7.00;;;;;22.68;91.27;99201.06;6299221;20;2744183;-45
2023/07/30 05:56:14;;;;;;;;;6.00;6.00;;;;;22.77;91.13;99208.16;6275036;20;2730788;-45
2023/07/30 05:58:42;;;;;;;;;8.00;6.00;;;;;22.73;91.43;99204.94;6303383;20;2748203;-46
2023/07/30 06:01:11;;;;;;;;;7.20;7.20;;;;;22.65;91.12;99199.53;6331165;20;2752382;-44
2023/07/30 06:03:40;;;;;;;;;7.20;6.00;;;;;22.77;90.83;99203.50;6300964;20;2732598;-44
2023/07/30 06:06:10;;;;;;;;;5.80;5.80;;;;;22.81;89.72;99204.00;6334510;20;2742008;-45
2023/07/30 06:08:39;;;;;;;;;7.40;7.40;;;;;22.87;89.93;99207.91;6296501;20;2743147;-46
2023/07/30 06:11:08;;;;;;;;;7.20;6.80;;;;;22.81;91.45;99203.16;6301291;20;2750254;-47
2023/07/30 06:13:37;;;;;;;;;8.60;8.20;;;;;22.74;91.56;99203.03;6288508;20;2745083;-44
2023/07/30 06:16:05;;;;;;;;;8.00;7.67;;;;;22.72;92.06;99207.84;6273503;20;2754536;-46
2023/07/30 06:18:34;;;;;;;;;6.67;6.67;;;;;22.83;91.87;99212.91;6313490;20;2739895;-44
2023/07/30 06:21:03;;;;;;;;;5.40;5.40;;;;;22.94;91.53;99204.22;6334261;20;2737822;-43
2023/07/30 06:23:31;;;;;;;;;8.00;8.00;;;;;22.92;91.63;99197.25;6277257;20;2733645;-43
2023/07/30 06:26:00;;;;;;;;;6.60;6.60;;;;;22.95;90.52;99203.19;6331281;20;2746108;-46
2023/07/30 06:28:29;;;;;;;;;8.00;7.60;;;;;22.98;90.26;99200.09;6298845;20;2740952;-44
2023/07/30 06:31:04;;;;;;;;;7.00;7.00;;;;;23.15;89.84;99194.47;6301728;20;2772181;-46
2023/07/30 06:33:32;;;;;;;;;6.00;6.00;;;;;23.25;89.48;99200.53;6316829;20;2738842;-44
2023/07/30 06:36:00;;;;;;;;;7.00;7.00;;;;;23.45;88.74;99198.91;6321453;20;2745156;-45
2023/07/30 06:38:28;;;;;;;;;10.00;8.00;;;;;23.37;88.34;99196.25;6310368;20;2760850;-46
2023/07/30 06:40:57;;;;;;;;;8.67;7.67;;;;;23.62;86.88;99198.72;6322314;20;2748223;-44
2023/07/30 06:43:25;;;;;;;;;6.33;6.33;;;;;23.48;86.06;99194.09;6314616;20;2735773;-45
2023/07/30 06:45:54;;;;;;;;;10.00;8.00;;;;;23.65;87.30;99190.13;6312748;20;2762880;-50
2023/07/30 06:48:22;;;;;;;;;10.00;9.33;;;;;23.71;87.91;99189.34;6317436;20;2776407;-45
2023/07/30 06:50:50;;;;;;;;;7.00;6.00;;;;;23.95;86.90;99193.69;6312442;20;2736771;-45
2023/07/30 06:53:19;;;;;;;;;8.40;7.60;;;;;24.15;84.26;99196.66;6338330;20;2753500;-48
2023/07/30 06:55:47;;;;;;;;;8.00;6.67;;;;;24.07;83.36;99199.53;6287318;20;2754463;-47
2023/07/30 06:58:16;;;;;;;;;7.60;6.00;;;;;24.11;83.30;99200.81;6335279;20;2743191;-47
2023/07/30 07:00:46;;;;;;;;;6.00;6.00;;;;;24.39;81.82;99198.16;6302805;20;2739878;-45
2023/07/30 07:03:14;;;;;;;;;7.00;5.33;;;;;24.32;80.66;99198.09;6282453;20;2732618;-45
2023/07/30 07:05:42;;;;;;;;;7.33;5.67;;;;;24.62;80.75;99191.66;6314202;20;2737850;-47
2023/07/30 07:08:13;;;;;;;;;4.40;4.20;;;;;24.82;78.19;99191.84;6334983;20;2739937;-48
2023/07/30 07:10:44;;;;;;;;;3.00;3.00;;;;;25.19;77.19;99187.91;6305466;20;2737794;-47
2023/07/30 07:13:15;;;;;;;;;5.00;5.00;;;;;25.17;76.09;99179.00;6310610;20;2736873;-47
2023/07/30 07:15:44;;;;;;;;;7.00;7.00;;;;;25.59;74.70;99185.38;6309099;20;2754409;-47
2023/07/30 07:18:12;;;;;;;;;5.00;5.00;;;;;26.15;72.27;99192.63;6313521;20;2746139;-46
2023/07/30 07:20:40;;;;;;;;;6.50;4.00;;;;;26.56;71.15;99195.28;6316146;20;2466922;-46
2023/07/30 07:23:08;;;;;;;;;4.00;4.00;;;;;27.36;68.36;99206.31;6310622;20;2736747;-48
2023/07/30 07:25:41;;;;;;;;;3.00;3.00;;;;;26.95;69.59;99203.78;6332993;20;2734686;-46
2023/07/30 07:28:10;;;;;;;;;1.60;1.60;;;;;26.82;69.34;99204.63;6297567;20;2738200;-50
2023/07/30 07:30:40;;;;;;;;;3.00;3.00;;;;;26.28;69.18;99211.94;6333188;20;2737812;-49
2023/07/30 07:33:12;;;;;;;;;4.60;4.60;;;;;25.87;71.50;99206.50;6305917;20;2729446;-45
2023/07/30 07:35:41;;;;;;;;;2.00;2.00;;;;;25.84;71.30;99208.59;6328468;20;2735704;-52
